Back to Top

Language: 

My Weather Underground Personal Weather Station Historical Data with Graphs...

Delerius Weather Station Historical Data
Daily Summary for March 4, 2017 Units:  Metric    English   Both
« Previous Day
Next Day »
Daily Weekly Monthly Yearly Custom
  High: Low: Average:
Temperature: 11.8 °C 5.9 °C 8.1 °C
Dew Point: 7.3 °C 2.6 °C 5.5 °C
Humidity: 98 % 54 % 85 %
Wind Speed: 17.7 km/h 0 km/h 7.7 km/h
Wind Gust: 25.7 km/h - -
Wind:- - South
Pressure: 988.4 hPa 984.3 hPa -
Precipitation: 0 mm    
Historical Graphs
 
 
Tabular Data for March 4, 2017
Time Temperature Dew Point Pressure Wind Wind Speed Wind Gust Humidity Rainfall Rate (Hourly) solar Conditions
00:05 7.4 °C 7.1 °C 988.4 hPa SE 3.2 km/h 3.2 km/h 98 % 0 mm 0 W/m2
00:15 7.5 °C 7.2 °C 988 hPa SE 3.2 km/h 4.8 km/h 98 % 0 mm 0 W/m2
00:20 7.5 °C 7.2 °C 988 hPa SE 3.2 km/h 3.2 km/h 98 % 0 mm 0 W/m2
00:25 7.5 °C 7.2 °C 987.7 hPa SE 1.6 km/h 3.2 km/h 98 % 0 mm 0 W/m2
00:30 7.5 °C 7.2 °C 987.7 hPa SE 3.2 km/h 3.2 km/h 98 % 0 mm 0 W/m2
00:35 7.5 °C 7.2 °C 987.7 hPa SE 3.2 km/h 3.2 km/h 98 % 0 mm 0 W/m2
00:45 7.5 °C 7.2 °C 987.7 hPa SE 4.8 km/h 6.4 km/h 98 % 0 mm 0 W/m2
00:50 7.5 °C 7.2 °C 987.7 hPa SE 4.8 km/h 6.4 km/h 98 % 0 mm 0 W/m2
01:00 7.5 °C 7.2 °C 987.4 hPa ESE 8 km/h 8 km/h 98 % 0 mm 0 W/m2
01:05 7.4 °C 7.2 °C 987.4 hPa East 6.4 km/h 8 km/h 98 % 0 mm 0 W/m2
01:10 7.4 °C 7.2 °C 987.4 hPa East 6.4 km/h 9.7 km/h 98 % 0 mm 0 W/m2
01:15 7.4 °C 7.2 °C 987.7 hPa East 4.8 km/h 9.7 km/h 98 % 0 mm 0 W/m2
01:25 7.4 °C 7.2 °C 987.7 hPa East 3.2 km/h 8 km/h 98 % 0 mm 0 W/m2
01:30 7.4 °C 7.2 °C 987.7 hPa Calm   8 km/h 98 % 0 mm 0 W/m2
01:35 7.4 °C 7.2 °C 987.7 hPa Calm   8 km/h 98 % 0 mm 0 W/m2
01:40 7.4 °C 7.2 °C 987.4 hPa Calm   8 km/h 98 % 0 mm 0 W/m2
01:45 7.4 °C 7.2 °C 987.4 hPa Calm   8 km/h 98 % 0 mm 0 W/m2
01:50 7.4 °C 7.2 °C 987.4 hPa Calm   8 km/h 98 % 0 mm 0 W/m2
02:00 7.4 °C 7.1 °C 987 hPa Calm   8 km/h 98 % 0 mm 0 W/m2
02:05 7.4 °C 7.1 °C 987 hPa East 1.6 km/h 8 km/h 98 % 0 mm 0 W/m2
02:15 7.3 °C 7.1 °C 987 hPa East 1.6 km/h 8 km/h 98 % 0 mm 0 W/m2
02:20 7.3 °C 7.1 °C 987 hPa East 1.6 km/h 1.6 km/h 98 % 0 mm 0 W/m2
02:25 7.3 °C 7.1 °C 987 hPa East 3.2 km/h 3.2 km/h 98 % 0 mm 0 W/m2
02:35 7.3 °C 7.1 °C 987 hPa East 6.4 km/h 8 km/h 98 % 0 mm 0 W/m2
02:40 7.3 °C 7.1 °C 987 hPa East 4.8 km/h 9.7 km/h 98 % 0 mm 0 W/m2
02:45 7.3 °C 7.1 °C 987 hPa SE 6.4 km/h 9.7 km/h 98 % 0 mm 0 W/m2
02:50 7.3 °C 7.1 °C 986.7 hPa ESE 8 km/h 8 km/h 98 % 0 mm 0 W/m2
02:55 7.3 °C 7.1 °C 986.7 hPa ESE 4.8 km/h 8 km/h 98 % 0 mm 0 W/m2
03:05 7.3 °C 7 °C 986.7 hPa ESE 3.2 km/h 8 km/h 98 % 0 mm 0 W/m2
03:15 7.3 °C 7 °C 986.7 hPa ESE 3.2 km/h 8 km/h 98 % 0 mm 0 W/m2
03:20 7.3 °C 7 °C 986.7 hPa ESE 1.6 km/h 8 km/h 98 % 0 mm 0 W/m2
03:25 7.2 °C 6.9 °C 986.3 hPa ESE 1.6 km/h 8 km/h 98 % 0 mm 0 W/m2
03:30 7.2 °C 6.9 °C 986.3 hPa ESE 1.6 km/h 8 km/h 98 % 0 mm 0 W/m2
03:40 7.2 °C 6.9 °C 986.3 hPa ESE 1.6 km/h 8 km/h 98 % 0 mm 0 W/m2
03:45 7.2 °C 6.9 °C 986.3 hPa ESE 1.6 km/h 8 km/h 98 % 0 mm 0 W/m2
03:50 7.2 °C 6.9 °C 986.3 hPa ESE 1.6 km/h 8 km/h 98 % 0 mm 0 W/m2
03:55 7.1 °C 6.8 °C 986.3 hPa ESE 1.6 km/h 8 km/h 98 % 0 mm 0 W/m2
04:00 7.1 °C 6.8 °C 986.3 hPa ESE 1.6 km/h 8 km/h 98 % 0 mm 0 W/m2
04:05 7.1 °C 6.8 °C 986.3 hPa SE 1.6 km/h 8 km/h 98 % 0 mm 0 W/m2
04:15 7.1 °C 6.8 °C 986.7 hPa SE 4.8 km/h 8 km/h 98 % 0 mm 0 W/m2
04:25 7.1 °C 6.8 °C 986.7 hPa SE 6.4 km/h 8 km/h 98 % 0 mm 0 W/m2
04:30 7.1 °C 6.8 °C 986.7 hPa SE 6.4 km/h 8 km/h 98 % 0 mm 0 W/m2
04:35 7.1 °C 6.8 °C 986.7 hPa SE 8 km/h 8 km/h 98 % 0 mm 0 W/m2
04:40 7.1 °C 6.8 °C 986.7 hPa SE 8 km/h 9.7 km/h 98 % 0 mm 0 W/m2
04:50 7.2 °C 6.9 °C 986.7 hPa SE 8 km/h 8 km/h 98 % 0 mm 0 W/m2
04:55 7.2 °C 6.9 °C 986.7 hPa SE 6.4 km/h 8 km/h 98 % 0 mm 0 W/m2
05:00 7.2 °C 6.9 °C 986.7 hPa SE 4.8 km/h 8 km/h 98 % 0 mm 0 W/m2
05:05 7.2 °C 6.9 °C 986.7 hPa SE 6.4 km/h 8 km/h 98 % 0 mm 0 W/m2
05:10 7.2 °C 6.9 °C 986.7 hPa SSE 4.8 km/h 4.8 km/h 98 % 0 mm 0 W/m2
05:20 7.2 °C 6.9 °C 986.7 hPa SSE 3.2 km/h 8 km/h 98 % 0 mm 0 W/m2
05:25 7.2 °C 6.9 °C 986.7 hPa SSE 3.2 km/h 8 km/h 98 % 0 mm 0 W/m2
05:30 7.1 °C 6.8 °C 986.7 hPa SSE 1.6 km/h 1.6 km/h 98 % 0 mm 0 W/m2
05:35 7.1 °C 6.8 °C 986.3 hPa Calm   8 km/h 98 % 0 mm 0 W/m2
05:45 7.1 °C 6.8 °C 986.3 hPa Calm   8 km/h 98 % 0 mm 0 W/m2
05:50 7.1 °C 6.8 °C 986.3 hPa Calm   8 km/h 98 % 0 mm 0 W/m2
06:00 6.9 °C 6.7 °C 986.3 hPa Calm   8 km/h 98 % 0 mm 0 W/m2
06:05 6.9 °C 6.6 °C 986.7 hPa Calm   8 km/h 98 % 0 mm 0 W/m2
06:10 6.9 °C 6.6 °C 986.7 hPa Calm   8 km/h 98 % 0 mm 0 W/m2
06:15 6.9 °C 6.6 °C 986.7 hPa Calm   8 km/h 98 % 0 mm 0 W/m2
06:20 6.9 °C 6.6 °C 986.7 hPa SSE 1.6 km/h 8 km/h 98 % 0 mm 0 W/m2
06:30 6.9 °C 6.6 °C 986.7 hPa SSE 3.2 km/h 3.2 km/h 98 % 0 mm 0 W/m2
06:35 6.9 °C 6.6 °C 986.7 hPa SSE 1.6 km/h 8 km/h 98 % 0 mm 0 W/m2
06:40 6.8 °C 6.6 °C 986.3 hPa Calm   8 km/h 98 % 0 mm 0 W/m2
06:45 6.8 °C 6.5 °C 986.3 hPa Calm   8 km/h 98 % 0 mm 0 W/m2
06:50 6.7 °C 6.4 °C 986.3 hPa Calm   8 km/h 98 % 0 mm 0 W/m2
07:00 6.6 °C 6.3 °C 986.3 hPa Calm   8 km/h 98 % 0 mm 5 W/m2
07:05 6.5 °C 6.2 °C 986.3 hPa SSE 1.6 km/h 8 km/h 98 % 0 mm 9 W/m2
07:15 6.4 °C 6.2 °C 986.3 hPa West 4.8 km/h 8 km/h 98 % 0 mm 14 W/m2
07:20 6.3 °C 6.1 °C 986.3 hPa West 4.8 km/h 4.8 km/h 98 % 0 mm 18 W/m2
07:25 6.3 °C 6 °C 986.3 hPa West 1.6 km/h 8 km/h 98 % 0 mm 19 W/m2
07:35 6.1 °C 5.7 °C 986.3 hPa Calm   8 km/h 97 % 0 mm 25 W/m2
07:40 6.1 °C 5.8 °C 986.3 hPa Calm   8 km/h 98 % 0 mm 30 W/m2
07:45 6.1 °C 5.8 °C 986.3 hPa Calm   8 km/h 98 % 0 mm 37 W/m2
07:50 6.1 °C 5.8 °C 986.3 hPa Calm   8 km/h 98 % 0 mm 46 W/m2
07:55 6.1 °C 5.8 °C 986.3 hPa Calm   8 km/h 98 % 0 mm 51 W/m2
08:00 6.2 °C 5.9 °C 986.3 hPa Calm   8 km/h 98 % 0 mm 51 W/m2
08:10 6.2 °C 5.9 °C 986.3 hPa Calm   8 km/h 98 % 0 mm 63 W/m2
08:20 6.3 °C 6 °C 986.3 hPa Calm   8 km/h 98 % 0 mm 70 W/m2
08:25 6.3 °C 6.1 °C 986.3 hPa Calm   8 km/h 98 % 0 mm 74 W/m2
08:30 6.4 °C 6.1 °C 986.3 hPa Calm   8 km/h 98 % 0 mm 77 W/m2
08:35 6.4 °C 6.1 °C 986.3 hPa Calm   8 km/h 98 % 0 mm 77 W/m2
08:45 6.5 °C 6.2 °C 986.3 hPa Calm   8 km/h 98 % 0 mm 84 W/m2
08:50 6.6 °C 6.3 °C 986.3 hPa Calm   8 km/h 98 % 0 mm 84 W/m2
08:55 6.6 °C 6.3 °C 986.3 hPa Calm   8 km/h 98 % 0 mm 91 W/m2
09:00 6.6 °C 6.3 °C 986.3 hPa Calm   8 km/h 98 % 0 mm 93 W/m2
09:05 6.6 °C 6.3 °C 986.3 hPa West 1.6 km/h 8 km/h 98 % 0 mm 97 W/m2
09:15 6.7 °C 6.4 °C 986.3 hPa Calm   8 km/h 98 % 0 mm 100 W/m2
09:20 6.7 °C 6.4 °C 986.3 hPa West 1.6 km/h 8 km/h 98 % 0 mm 111 W/m2
09:30 6.8 °C 6.6 °C 986.3 hPa SSE 3.2 km/h 3.2 km/h 98 % 0 mm 120 W/m2
09:35 6.9 °C 6.6 °C 986.3 hPa South 3.2 km/h 8 km/h 98 % 0 mm 123 W/m2
09:40 6.9 °C 6.6 °C 986.3 hPa South 3.2 km/h 8 km/h 98 % 0 mm 142 W/m2
09:50 6.9 °C 6.4 °C 986.3 hPa South 6.4 km/h 6.4 km/h 97 % 0 mm 160 W/m2
09:55 7 °C 6.7 °C 986 hPa South 4.8 km/h 8 km/h 98 % 0 mm 156 W/m2
10:00 7.1 °C 6.7 °C 986 hPa South 3.2 km/h 8 km/h 97 % 0 mm 158 W/m2
10:05 7.1 °C 6.7 °C 986 hPa South 3.2 km/h 8 km/h 97 % 0 mm 155 W/m2
10:10 7.2 °C 6.8 °C 986 hPa South 1.6 km/h 1.6 km/h 97 % 0 mm 162 W/m2
10:15 7.3 °C 6.8 °C 986 hPa Calm   8 km/h 97 % 0 mm 181 W/m2
10:25 7.4 °C 7 °C 986 hPa Calm   8 km/h 97 % 0 mm 299 W/m2
10:30 7.6 °C 6.9 °C 986 hPa South 1.6 km/h 8 km/h 96 % 0 mm 359 W/m2
10:35 7.7 °C 7.1 °C 986 hPa SW 6.4 km/h 8 km/h 96 % 0 mm 482 W/m2
10:40 7.9 °C 7.2 °C 986 hPa SSW 9.7 km/h 9.7 km/h 95 % 0 mm 373 W/m2
10:45 8.2 °C 7.3 °C 986 hPa South 8 km/h 9.7 km/h 94 % 0 mm 508 W/m2
10:55 8.4 °C 7.1 °C 986 hPa SW 6.4 km/h 12.9 km/h 91 % 0 mm 540 W/m2
11:05 8.8 °C 6.9 °C 986 hPa WSW 8 km/h 11.3 km/h 88 % 0 mm 592 W/m2
11:10 9.1 °C 7.2 °C 986 hPa West 8 km/h 8 km/h 88 % 0 mm 563 W/m2
11:15 9.3 °C 6.7 °C 986 hPa South 9.7 km/h 9.7 km/h 84 % 0 mm 410 W/m2
11:20 9.3 °C 6.9 °C 985.7 hPa South 6.4 km/h 8 km/h 85 % 0 mm 353 W/m2
11:30 9.4 °C 6.4 °C 985.7 hPa SE 8 km/h 8 km/h 82 % 0 mm 341 W/m2
11:35 9.5 °C 6.4 °C 985.7 hPa SSW 8 km/h 8 km/h 81 % 0 mm 397 W/m2
11:40 9.6 °C 6.2 °C 985.7 hPa South 9.7 km/h 9.7 km/h 79 % 0 mm 322 W/m2
11:45 9.7 °C 6 °C 985.7 hPa SSW 11.3 km/h 16.1 km/h 78 % 0 mm 316 W/m2
11:50 9.7 °C 6.2 °C 985.7 hPa South 9.7 km/h 9.7 km/h 79 % 0 mm 336 W/m2
11:55 9.7 °C 6.3 °C 985.7 hPa SSW 8 km/h 9.7 km/h 79 % 0 mm 309 W/m2
12:05 10 °C 6.3 °C 985.7 hPa SSW 6.4 km/h 11.3 km/h 78 % 0 mm 327 W/m2
12:10 10.1 °C 5.8 °C 985.7 hPa South 9.7 km/h 11.3 km/h 75 % 0 mm 701 W/m2
12:15 10.3 °C 6.1 °C 985.3 hPa SW 11.3 km/h 12.9 km/h 75 % 0 mm 253 W/m2
12:25 10.8 °C 6.3 °C 985.7 hPa South 11.3 km/h 16.1 km/h 74 % 0 mm 652 W/m2
12:30 10.8 °C 5.8 °C 985.7 hPa South 11.3 km/h 11.3 km/h 71 % 0 mm 394 W/m2
12:40 10.6 °C 5.5 °C 985.3 hPa SW 12.9 km/h 12.9 km/h 71 % 0 mm 533 W/m2
12:45 10.6 °C 5.6 °C 985.3 hPa SSW 9.7 km/h 14.5 km/h 71 % 0 mm 594 W/m2
12:50 10.7 °C 5.4 °C 985.3 hPa SSW 11.3 km/h 11.3 km/h 70 % 0 mm 608 W/m2
12:55 10.9 °C 5.4 °C 985.3 hPa South 12.9 km/h 14.5 km/h 69 % 0 mm 629 W/m2
13:00 11.1 °C 5.2 °C 985.3 hPa SSE 12.9 km/h 14.5 km/h 67 % 0 mm 570 W/m2
13:10 11.1 °C 4.9 °C 985.3 hPa SSE 11.3 km/h 14.5 km/h 66 % 0 mm 436 W/m2
13:15 11.1 °C 4.1 °C 985.3 hPa South 11.3 km/h 17.7 km/h 62 % 0 mm 619 W/m2
13:20 11.2 °C 4.2 °C 985.3 hPa South 14.5 km/h 25.7 km/h 62 % 0 mm 464 W/m2
13:25 11.3 °C 4 °C 985.3 hPa SE 14.5 km/h 25.7 km/h 61 % 0 mm 573 W/m2
13:30 11.3 °C 3.8 °C 985 hPa South 14.5 km/h 16.1 km/h 60 % 0 mm 563 W/m2
13:40 11.5 °C 4.4 °C 985.3 hPa South 12.9 km/h 12.9 km/h 62 % 0 mm 570 W/m2
13:45 11.6 °C 4.6 °C 985 hPa SSW 12.9 km/h 17.7 km/h 62 % 0 mm 584 W/m2
13:55 11.8 °C 4.3 °C 985 hPa SSW 16.1 km/h 16.1 km/h 60 % 0 mm 524 W/m2
14:00 11.6 °C 4.1 °C 985 hPa South 16.1 km/h 16.1 km/h 60 % 0 mm 490 W/m2
14:05 11.6 °C 4.3 °C 985 hPa South 14.5 km/h 16.1 km/h 61 % 0 mm 503 W/m2
14:10 11.6 °C 4.3 °C 985 hPa SE 14.5 km/h 14.5 km/h 61 % 0 mm 492 W/m2
14:20 11.6 °C 4.3 °C 985 hPa South 14.5 km/h 16.1 km/h 61 % 0 mm 422 W/m2
14:25 11.5 °C 3.5 °C 985 hPa South 16.1 km/h 16.1 km/h 58 % 0 mm 515 W/m2
14:30 11.5 °C 3.8 °C 985 hPa SW 16.1 km/h 19.3 km/h 59 % 0 mm 492 W/m2
14:35 11.5 °C 3.8 °C 985 hPa South 14.5 km/h 19.3 km/h 59 % 0 mm 517 W/m2
14:40 11.2 °C 3.7 °C 985 hPa SE 16.1 km/h 16.1 km/h 60 % 0 mm 162 W/m2
14:50 10.8 °C 3.4 °C 985 hPa SSE 14.5 km/h 14.5 km/h 60 % 0 mm 211 W/m2
14:55 10.8 °C 3.4 °C 985 hPa South 14.5 km/h 16.1 km/h 60 % 0 mm 485 W/m2
15:00 11 °C 3.3 °C 984.6 hPa SW 14.5 km/h 17.7 km/h 59 % 0 mm 476 W/m2
15:10 11.6 °C 3.8 °C 984.6 hPa SE 12.9 km/h 12.9 km/h 59 % 0 mm 469 W/m2
15:15 11.7 °C 3.4 °C 984.6 hPa SSE 14.5 km/h 19.3 km/h 57 % 0 mm 457 W/m2
15:25 11.5 °C 3.3 °C 984.6 hPa SSE 14.5 km/h 19.3 km/h 57 % 0 mm 369 W/m2
15:30 11.6 °C 2.6 °C 984.6 hPa South 16.1 km/h 16.1 km/h 54 % 0 mm 113 W/m2
15:35 11.4 °C 2.9 °C 984.6 hPa South 12.9 km/h 16.1 km/h 56 % 0 mm 127 W/m2
15:40 11.2 °C 2.8 °C 984.6 hPa South 11.3 km/h 16.1 km/h 56 % 0 mm 130 W/m2
15:45 11.1 °C 2.7 °C 984.6 hPa SSW 12.9 km/h 16.1 km/h 56 % 0 mm 118 W/m2
15:50 10.9 °C 3 °C 984.6 hPa SSW 12.9 km/h 16.1 km/h 58 % 0 mm 95 W/m2
16:00 10.7 °C 3 °C 984.6 hPa South 14.5 km/h 14.5 km/h 59 % 0 mm 65 W/m2
16:05 10.6 °C 2.9 °C 984.6 hPa South 14.5 km/h 14.5 km/h 59 % 0 mm 44 W/m2
16:10 10.6 °C 3.1 °C 984.6 hPa SSW 12.9 km/h 24.1 km/h 60 % 0 mm 40 W/m2
16:20 10.4 °C 3.2 °C 984.6 hPa SSW 11.3 km/h 11.3 km/h 61 % 0 mm 39 W/m2
16:25 10.3 °C 3.1 °C 984.6 hPa SW 12.9 km/h 20.9 km/h 61 % 0 mm 42 W/m2
16:35 10.2 °C 3.3 °C 984.3 hPa South 12.9 km/h 14.5 km/h 62 % 0 mm 30 W/m2
16:40 10.2 °C 3.5 °C 984.3 hPa SE 11.3 km/h 11.3 km/h 63 % 0 mm 49 W/m2
16:45 10.2 °C 3.5 °C 984.3 hPa SSE 9.7 km/h 19.3 km/h 63 % 0 mm 58 W/m2
16:50 10.2 °C 3.4 °C 984.6 hPa SSE 12.9 km/h 12.9 km/h 63 % 0 mm 46 W/m2
16:55 10.2 °C 3.4 °C 984.3 hPa SE 14.5 km/h 14.5 km/h 63 % 0 mm 42 W/m2
17:05 10.1 °C 3.6 °C 984.6 hPa SE 12.9 km/h 16.1 km/h 64 % 0 mm 37 W/m2
17:10 10.1 °C 3.6 °C 984.6 hPa SE 12.9 km/h 12.9 km/h 64 % 0 mm 30 W/m2
17:15 10.1 °C 3.6 °C 984.3 hPa SE 12.9 km/h 12.9 km/h 64 % 0 mm 26 W/m2
17:20 10 °C 3.5 °C 984.6 hPa SE 12.9 km/h 14.5 km/h 64 % 0 mm 18 W/m2
17:25 10 °C 3.5 °C 984.6 hPa South 14.5 km/h 14.5 km/h 64 % 0 mm 12 W/m2
17:30 9.9 °C 3.7 °C 984.6 hPa SE 16.1 km/h 16.1 km/h 65 % 0 mm 11 W/m2
17:40 9.8 °C 3.8 °C 984.6 hPa SSE 16.1 km/h 25.7 km/h 66 % 0 mm 0 W/m2
17:45 9.7 °C 4.1 °C 985 hPa South 17.7 km/h 25.7 km/h 68 % 0 mm 0 W/m2
17:55 8.8 °C 4.8 °C 985 hPa SSE 16.1 km/h 19.3 km/h 76 % 0 mm 0 W/m2
18:00 8.5 °C 4.9 °C 985 hPa SSE 12.9 km/h 12.9 km/h 78 % 0 mm 0 W/m2
18:05 8.3 °C 4.8 °C 985 hPa SSE 11.3 km/h 12.9 km/h 79 % 0 mm 0 W/m2
18:15 8.1 °C 5.1 °C 985 hPa SSE 11.3 km/h 12.9 km/h 81 % 0 mm 0 W/m2
18:20 8.1 °C 5.2 °C 985 hPa SSE 11.3 km/h 11.3 km/h 82 % 0 mm 0 W/m2
18:25 8 °C 5.1 °C 985 hPa SE 12.9 km/h 12.9 km/h 82 % 0 mm 0 W/m2
18:30 7.9 °C 5.1 °C 985 hPa SE 12.9 km/h 14.5 km/h 82 % 0 mm 0 W/m2
18:35 7.9 °C 5.2 °C 985 hPa SE 12.9 km/h 14.5 km/h 83 % 0 mm 0 W/m2
18:45 7.7 °C 5 °C 985 hPa SSE 9.7 km/h 12.9 km/h 83 % 0 mm 0 W/m2
18:50 7.6 °C 5.1 °C 984.6 hPa SE 9.7 km/h 9.7 km/h 84 % 0 mm 0 W/m2
18:55 7.6 °C 5 °C 985 hPa SE 9.7 km/h 9.7 km/h 84 % 0 mm 0 W/m2
19:00 7.4 °C 5.1 °C 985 hPa South 11.3 km/h 11.3 km/h 85 % 0 mm 0 W/m2
19:05 7.4 °C 5.1 °C 985 hPa SSE 9.7 km/h 11.3 km/h 85 % 0 mm 0 W/m2
19:10 7.3 °C 5.2 °C 985 hPa South 9.7 km/h 9.7 km/h 86 % 0 mm 0 W/m2
19:20 7.3 °C 5.1 °C 985 hPa SSW 9.7 km/h 9.7 km/h 86 % 0 mm 0 W/m2
19:30 7.4 °C 5.2 °C 985 hPa SSW 9.7 km/h 9.7 km/h 86 % 0 mm 0 W/m2
19:35 7.4 °C 5.3 °C 985 hPa SSW 9.7 km/h 11.3 km/h 86 % 0 mm 0 W/m2
19:40 7.4 °C 5.1 °C 985 hPa SSW 11.3 km/h 11.3 km/h 85 % 0 mm 0 W/m2
19:45 7.5 °C 5.2 °C 985 hPa SSW 9.7 km/h 12.9 km/h 85 % 0 mm 0 W/m2
19:55 7.4 °C 5.1 °C 985 hPa SSW 11.3 km/h 12.9 km/h 85 % 0 mm 0 W/m2
20:00 7.4 °C 5.1 °C 985 hPa South 12.9 km/h 12.9 km/h 85 % 0 mm 0 W/m2
20:05 7.3 °C 5 °C 985 hPa SSW 14.5 km/h 20.9 km/h 85 % 0 mm 0 W/m2
20:10 7.3 °C 5 °C 985 hPa South 12.9 km/h 12.9 km/h 85 % 0 mm 0 W/m2
20:15 7.3 °C 5.1 °C 985 hPa SSW 9.7 km/h 12.9 km/h 86 % 0 mm 0 W/m2
20:25 7.2 °C 5 °C 985 hPa South 9.7 km/h 16.1 km/h 86 % 0 mm 0 W/m2
20:30 7.1 °C 4.9 °C 985 hPa South 9.7 km/h 11.3 km/h 86 % 0 mm 0 W/m2
20:35 7.1 °C 4.9 °C 985.3 hPa SSW 11.3 km/h 12.9 km/h 86 % 0 mm 0 W/m2
20:45 6.9 °C 4.9 °C 985.3 hPa SSW 9.7 km/h 12.9 km/h 87 % 0 mm 0 W/m2
20:50 6.9 °C 4.9 °C 985.3 hPa SSW 12.9 km/h 16.1 km/h 87 % 0 mm 0 W/m2
21:00 6.9 °C 4.9 °C 985.3 hPa WSW 14.5 km/h 14.5 km/h 87 % 0 mm 0 W/m2
21:05 6.8 °C 4.6 °C 985.3 hPa WSW 12.9 km/h 14.5 km/h 86 % 0 mm 0 W/m2
21:10 6.7 °C 4.4 °C 985.3 hPa West 12.9 km/h 12.9 km/h 85 % 0 mm 0 W/m2
21:15 6.7 °C 4.4 °C 985.3 hPa SW 11.3 km/h 12.9 km/h 85 % 0 mm 0 W/m2
21:20 6.6 °C 4.1 °C 985.3 hPa WSW 12.9 km/h 12.9 km/h 84 % 0 mm 0 W/m2
21:25 6.6 °C 4.1 °C 985.3 hPa WSW 12.9 km/h 12.9 km/h 84 % 0 mm 0 W/m2
21:35 6.4 °C 3.9 °C 985.3 hPa SW 8 km/h 11.3 km/h 84 % 0 mm 0 W/m2
21:40 6.3 °C 3.8 °C 985.3 hPa SW 8 km/h 12.9 km/h 84 % 0 mm 0 W/m2
21:45 6.3 °C 3.8 °C 985.7 hPa SW 8 km/h 12.9 km/h 84 % 0 mm 0 W/m2
21:50 6.2 °C 3.7 °C 985.7 hPa SW 8 km/h 9.7 km/h 84 % 0 mm 0 W/m2
21:55 6.1 °C 3.6 °C 985.7 hPa SW 6.4 km/h 9.7 km/h 84 % 0 mm 0 W/m2
22:05 6.1 °C 3.7 °C 985.7 hPa SW 6.4 km/h 9.7 km/h 85 % 0 mm 0 W/m2
22:10 6.1 °C 3.7 °C 985.7 hPa WSW 8 km/h 8 km/h 85 % 0 mm 0 W/m2
22:20 6.1 °C 3.7 °C 985.7 hPa SW 9.7 km/h 9.7 km/h 85 % 0 mm 0 W/m2
22:25 6.1 °C 3.7 °C 985.7 hPa SSW 9.7 km/h 14.5 km/h 85 % 0 mm 0 W/m2
22:30 6.1 °C 3.7 °C 986 hPa SW 9.7 km/h 9.7 km/h 85 % 0 mm 0 W/m2
22:40 6.2 °C 4 °C 986 hPa SSW 11.3 km/h 12.9 km/h 86 % 0 mm 0 W/m2
22:45 6.2 °C 4.1 °C 986 hPa SW 9.7 km/h 12.9 km/h 86 % 0 mm 0 W/m2
22:50 6.2 °C 4 °C 986 hPa SSW 9.7 km/h 12.9 km/h 86 % 0 mm 0 W/m2
22:55 6.1 °C 3.9 °C 986 hPa SW 9.7 km/h 12.9 km/h 86 % 0 mm 0 W/m2
23:00 6 °C 3.8 °C 986 hPa SW 9.7 km/h 9.7 km/h 86 % 0 mm 0 W/m2
23:05 5.9 °C 3.8 °C 986 hPa SW 9.7 km/h 9.7 km/h 86 % 0 mm 0 W/m2
23:15 6 °C 4 °C 986 hPa WSW 11.3 km/h 11.3 km/h 87 % 0 mm 0 W/m2
23:20 6 °C 4 °C 986.3 hPa SW 12.9 km/h 19.3 km/h 87 % 0 mm 0 W/m2
23:25 6.1 °C 4.1 °C 986.3 hPa WSW 14.5 km/h 24.1 km/h 87 % 0 mm 0 W/m2
23:30 6.1 °C 4.1 °C 986.3 hPa SW 17.7 km/h 20.9 km/h 87 % 0 mm 0 W/m2
23:40 6.1 °C 4.1 °C 986.3 hPa WSW 17.7 km/h 17.7 km/h 87 % 0 mm 0 W/m2
23:45 6.1 °C 4.1 °C 986.3 hPa WSW 14.5 km/h 17.7 km/h 87 % 0 mm 0 W/m2
23:55 6 °C 4 °C 986.3 hPa WSW 11.3 km/h 12.9 km/h 87 % 0 mm 0 W/m2
Delerius-Weather
Compliments of Weather Underground - 2 mb

Data updates at regular intervals.